createdAt,value
2019-02-28T00:02:41.230Z,6.53
2019-02-28T00:07:49.632Z,6.20
2019-02-28T00:12:56.473Z,5.97
2019-02-28T00:18:03.672Z,6.60
2019-02-28T00:23:09.802Z,6.97
2019-02-28T00:28:16.006Z,5.90
2019-02-28T00:33:21.645Z,6.07
2019-02-28T00:38:29.614Z,5.90
2019-02-28T00:43:34.612Z,6.23
2019-02-28T00:48:40.380Z,5.97
2019-02-28T00:53:47.040Z,12.97
2019-02-28T00:58:52.615Z,6.33
2019-02-28T01:03:59.122Z,6.87
2019-02-28T01:09:06.900Z,7.40
2019-02-28T01:14:13.654Z,6.50
2019-02-28T01:19:19.239Z,7.40
2019-02-28T01:24:25.261Z,6.90
2019-02-28T01:29:32.963Z,6.57
2019-02-28T01:34:38.730Z,7.10
2019-02-28T01:39:46.323Z,6.70
2019-02-28T01:44:52.317Z,6.00
2019-02-28T01:49:58.819Z,7.63
2019-02-28T01:55:06.204Z,7.10
2019-02-28T02:00:19.383Z,6.63
2019-02-28T02:05:25.581Z,6.93
2019-02-28T02:10:31.401Z,7.50
2019-02-28T02:15:37.158Z,7.43
2019-02-28T02:20:43.332Z,7.57
2019-02-28T02:25:48.923Z,7.60
2019-02-28T02:30:56.125Z,7.57
2019-02-28T02:36:03.111Z,7.73
2019-02-28T02:41:10.454Z,8.20
2019-02-28T02:46:20.246Z,8.20
2019-02-28T02:51:24.815Z,8.30
2019-02-28T02:56:30.667Z,8.57
2019-02-28T03:01:36.399Z,8.40
2019-02-28T03:06:45.968Z,9.07
2019-02-28T03:11:51.170Z,8.77
2019-02-28T03:16:56.807Z,9.10
2019-02-28T03:22:02.620Z,9.17
2019-02-28T03:27:08.567Z,9.47
2019-02-28T03:32:14.213Z,9.37
2019-02-28T03:37:19.783Z,9.33
2019-02-28T03:42:28.513Z,9.87
2019-02-28T03:47:34.466Z,10.20
2019-02-28T03:52:43.888Z,10.30
2019-02-28T03:57:48.941Z,9.90
2019-02-28T04:02:58.763Z,10.53
2019-02-28T04:08:02.339Z,10.03
2019-02-28T04:13:08.176Z,11.57
2019-02-28T04:18:13.898Z,11.10
2019-02-28T04:23:19.509Z,11.33
2019-02-28T04:28:25.665Z,11.93
2019-02-28T04:33:37.691Z,11.53
2019-02-28T04:38:39.319Z,12.87
2019-02-28T04:43:45.247Z,12.83
2019-02-28T04:48:50.877Z,13.23
2019-02-28T04:53:57.267Z,14.03
2019-02-28T04:59:03.282Z,15.40
2019-02-28T05:04:09.056Z,15.30
2019-02-28T05:09:15.263Z,15.73
2019-02-28T05:14:23.694Z,15.90
2019-02-28T05:19:32.272Z,15.90
2019-02-28T05:24:39.491Z,17.53
2019-02-28T05:29:45.035Z,16.97
2019-02-28T05:34:51.042Z,17.60
2019-02-28T05:39:57.445Z,18.80
2019-02-28T05:45:03.332Z,18.83
2019-02-28T05:50:15.163Z,18.37
2019-02-28T05:55:18.148Z,19.57
2019-02-28T06:00:25.219Z,20.50
2019-02-28T06:05:30.793Z,20.87
2019-02-28T06:10:36.710Z,21.13
2019-02-28T06:15:42.276Z,21.83
2019-02-28T06:20:50.953Z,21.93
2019-02-28T06:25:55.850Z,21.27
2019-02-28T06:31:03.458Z,22.43
2019-02-28T06:36:09.862Z,22.20
2019-02-28T06:41:15.654Z,24.43
2019-02-28T06:46:21.767Z,23.63
2019-02-28T06:51:28.018Z,22.93
2019-02-28T06:56:35.590Z,25.80
2019-02-28T07:01:41.485Z,23.10
2019-02-28T07:06:48.659Z,28.07
2019-02-28T07:11:55.760Z,25.80
2019-02-28T07:17:01.664Z,27.27
2019-02-28T07:22:09.414Z,28.90
2019-02-28T07:27:15.049Z,26.80
2019-02-28T07:32:20.808Z,27.77
2019-02-28T07:37:26.597Z,28.97
2019-02-28T07:42:37.574Z,29.17
2019-02-28T07:47:42.839Z,30.73
2019-02-28T07:52:49.079Z,31.57
2019-02-28T07:57:56.590Z,29.43
2019-02-28T08:03:04.525Z,29.77
2019-02-28T08:08:10.775Z,33.43
2019-02-28T08:13:18.517Z,34.33
2019-02-28T08:18:24.497Z,28.93
2019-02-28T08:23:31.354Z,28.17
2019-02-28T08:28:38.591Z,34.93
2019-02-28T08:33:48.113Z,38.10
2019-02-28T08:38:52.130Z,37.93
2019-02-28T08:43:59.283Z,38.73
2019-02-28T08:49:07.192Z,39.73
2019-02-28T08:54:13.882Z,41.87
2019-02-28T08:59:22.540Z,35.23
2019-02-28T09:04:27.635Z,37.47
2019-02-28T09:09:34.487Z,39.50
2019-02-28T09:14:42.386Z,40.27
2019-02-28T09:19:48.184Z,37.20
2019-02-28T09:24:53.828Z,38.57
2019-02-28T09:29:59.399Z,38.23
2019-02-28T09:35:12.266Z,37.93
2019-02-28T09:40:15.933Z,33.77
2019-02-28T09:45:23.606Z,36.87
2019-02-28T09:50:29.867Z,39.37
2019-02-28T09:55:36.924Z,36.50
2019-02-28T10:00:43.280Z,38.97
2019-02-28T10:05:50.736Z,39.20
2019-02-28T10:10:57.035Z,34.90
2019-02-28T10:16:02.676Z,31.73
2019-02-28T10:21:08.813Z,37.77
2019-02-28T10:26:17.251Z,36.77
2019-02-28T10:31:35.225Z,34.80
2019-02-28T10:36:31.798Z,35.17
2019-02-28T10:41:37.530Z,35.87
2019-02-28T10:46:45.097Z,34.37
2019-02-28T10:51:50.854Z,34.23
2019-02-28T10:56:58.487Z,35.17
2019-02-28T11:02:04.307Z,38.70
2019-02-28T11:07:11.922Z,37.10
2019-02-28T11:12:20.026Z,34.83
2019-02-28T11:17:26.928Z,34.57
2019-02-28T11:22:32.936Z,34.40
2019-02-28T11:27:41.869Z,35.60
2019-02-28T11:32:48.183Z,38.10
2019-02-28T11:37:54.361Z,35.03
2019-02-28T11:43:03.843Z,37.70
2019-02-28T11:48:18.880Z,32.47
2019-02-28T11:53:24.110Z,33.77
2019-02-28T11:58:30.525Z,33.30
2019-02-28T12:03:36.940Z,33.57
2019-02-28T12:08:45.063Z,35.77
2019-02-28T12:13:51.735Z,35.23
2019-02-28T12:19:00.244Z,33.97
2019-02-28T12:24:06.746Z,35.40
2019-02-28T12:29:13.803Z,34.10
2019-02-28T12:34:20.541Z,32.37
2019-02-28T12:39:27.328Z,35.43
2019-02-28T12:44:33.570Z,34.80
2019-02-28T12:49:40.317Z,31.73
2019-02-28T12:54:47.867Z,33.17
2019-02-28T12:59:53.431Z,35.07
2019-02-28T13:05:00.439Z,32.77
2019-02-28T13:10:09.952Z,31.93
2019-02-28T13:15:18.248Z,34.27
2019-02-28T13:20:32.386Z,37.47
2019-02-28T13:25:36.103Z,36.83
2019-02-28T13:30:49.035Z,36.70
2019-02-28T13:35:49.722Z,36.27
2019-02-28T13:40:55.444Z,38.23
2019-02-28T13:46:01.473Z,36.13
2019-02-28T13:51:08.559Z,35.87
2019-02-28T13:56:14.964Z,35.47
2019-02-28T14:01:21.371Z,35.87
2019-02-28T14:06:27.116Z,31.90
2019-02-28T14:11:34.640Z,33.90
2019-02-28T14:16:41.236Z,33.77
2019-02-28T14:21:46.974Z,33.83
2019-02-28T14:26:53.305Z,34.13
2019-02-28T14:31:59.723Z,34.60
2019-02-28T14:37:05.604Z,33.33
2019-02-28T14:42:12.949Z,38.53
2019-02-28T14:47:18.526Z,35.27
2019-02-28T14:52:24.102Z,36.33
2019-02-28T14:57:30.916Z,36.23
2019-02-28T15:02:36.483Z,38.80
2019-02-28T15:07:43.066Z,34.37
2019-02-28T15:12:49.698Z,37.03
2019-02-28T15:17:55.337Z,35.40
2019-02-28T15:23:01.336Z,37.60
2019-02-28T15:28:10.707Z,36.83
2019-02-28T15:33:16.407Z,36.63
2019-02-28T15:38:24.020Z,33.20
2019-02-28T15:43:29.829Z,33.73
2019-02-28T15:48:36.580Z,34.80
2019-02-28T15:53:42.737Z,35.80
2019-02-28T15:58:49.045Z,37.53
2019-02-28T16:03:56.879Z,36.17
2019-02-28T16:09:06.652Z,40.67
2019-02-28T16:14:14.979Z,39.60
2019-02-28T16:19:23.089Z,40.90
2019-02-28T16:24:29.136Z,42.50
2019-02-28T16:29:35.569Z,41.70
2019-02-28T16:34:42.425Z,41.97
2019-02-28T16:39:49.832Z,43.33
2019-02-28T16:44:57.468Z,41.90
2019-02-28T16:50:06.072Z,44.57
2019-02-28T16:55:13.103Z,45.60
2019-02-28T17:00:19.200Z,44.37
2019-02-28T17:05:27.906Z,44.17
2019-02-28T17:10:40.231Z,45.97
2019-02-28T17:16:02.645Z,43.77
2019-02-28T17:21:08.651Z,46.37
2019-02-28T17:26:14.203Z,42.67
2019-02-28T17:31:25.160Z,39.13
2019-02-28T17:36:33.156Z,40.23
2019-02-28T17:41:38.988Z,39.00
2019-02-28T17:46:46.580Z,38.37
2019-02-28T17:51:58.499Z,39.07
2019-02-28T17:57:16.566Z,37.80
2019-02-28T18:02:40.379Z,38.50
2019-02-28T18:08:01.404Z,37.60
2019-02-28T18:13:20.093Z,36.43
2019-02-28T18:18:36.379Z,37.93
2019-02-28T18:24:09.506Z,36.70
2019-02-28T18:29:39.776Z,37.33
2019-02-28T18:34:45.340Z,37.57
2019-02-28T18:39:52.286Z,36.67
2019-02-28T18:44:57.858Z,38.10
2019-02-28T18:50:03.580Z,37.93
2019-02-28T18:55:09.478Z,38.53
2019-02-28T19:00:18.197Z,39.50
2019-02-28T19:05:25.946Z,40.90
2019-02-28T19:10:33.266Z,40.73
2019-02-28T19:15:39.857Z,41.27
2019-02-28T19:20:45.519Z,40.57
2019-02-28T19:25:51.968Z,41.43
2019-02-28T19:30:57.530Z,41.97
2019-02-28T19:36:04.468Z,40.33
2019-02-28T19:41:10.565Z,42.13
2019-02-28T19:46:16.116Z,45.23
2019-02-28T19:51:21.750Z,43.80
2019-02-28T19:56:27.579Z,44.70
2019-02-28T20:01:33.891Z,43.63
2019-02-28T20:06:39.952Z,45.37
2019-02-28T20:11:49.451Z,42.87
2019-02-28T20:16:55.233Z,41.77
2019-02-28T20:22:06.225Z,40.40
2019-02-28T20:27:13.305Z,42.77
2019-02-28T20:32:20.910Z,41.53
2019-02-28T20:37:26.884Z,41.37
2019-02-28T20:42:36.185Z,38.23
2019-02-28T20:47:42.713Z,37.13
2019-02-28T20:52:50.228Z,35.33
2019-02-28T20:57:55.902Z,36.93
2019-02-28T21:03:01.837Z,37.03
2019-02-28T21:08:11.755Z,37.00
2019-02-28T21:13:17.830Z,34.97
2019-02-28T21:18:26.822Z,35.50
2019-02-28T21:23:32.541Z,32.70
2019-02-28T21:28:43.444Z,32.70
2019-02-28T21:33:49.370Z,30.10
2019-02-28T21:38:58.259Z,29.90
2019-02-28T21:44:04.051Z,28.33
2019-02-28T21:49:13.277Z,29.30
2019-02-28T21:54:19.213Z,28.60
2019-02-28T21:59:24.823Z,27.20
2019-02-28T22:04:33.517Z,25.73
2019-02-28T22:09:39.260Z,25.57
2019-02-28T22:14:49.103Z,26.60
2019-02-28T22:19:57.299Z,26.10
2019-02-28T22:25:06.037Z,23.40
2019-02-28T22:30:35.339Z,23.50
2019-02-28T22:35:45.066Z,23.00
2019-02-28T22:40:52.737Z,24.53
2019-02-28T22:46:04.355Z,25.10
2019-02-28T22:51:10.617Z,25.50
2019-02-28T22:56:16.813Z,23.73
2019-02-28T23:01:25.241Z,24.07
2019-02-28T23:06:35.429Z,24.37
2019-02-28T23:11:41.074Z,24.33
2019-02-28T23:16:47.156Z,24.23
2019-02-28T23:21:54.657Z,24.50
2019-02-28T23:27:14.472Z,23.97
2019-02-28T23:32:35.200Z,24.67
2019-02-28T23:37:41.500Z,24.63
2019-02-28T23:42:47.065Z,24.50
2019-02-28T23:47:52.700Z,26.07
2019-02-28T23:52:58.263Z,23.97
2019-02-28T23:58:04.300Z,23.37
